createdAt,value
2019-02-24T00:01:01.582Z,1.1
2019-02-24T00:06:01.458Z,1.0
2019-02-24T00:11:01.729Z,0.8
2019-02-24T00:16:01.415Z,0.7
2019-02-24T00:21:01.370Z,0.5
2019-02-24T00:26:01.348Z,0.4
2019-02-24T00:31:01.286Z,0.3
2019-02-24T00:36:01.398Z,0.1
2019-02-24T00:56:01.452Z,-0.1
2019-02-24T01:37:01.461Z,0.1
2019-02-24T01:52:01.444Z,0.1
2019-02-24T02:07:01.564Z,-0.1
2019-02-24T02:22:01.419Z,-0.1
2019-02-24T02:37:01.393Z,-0.1
2019-02-24T02:53:01.443Z,-0.1
2019-02-24T03:33:01.420Z,-0.1
2019-02-24T03:38:01.380Z,-0.2
2019-02-24T03:53:01.468Z,-0.1
2019-02-24T04:08:01.391Z,-0.1
2019-02-24T04:48:01.516Z,-0.1
2019-02-24T04:53:01.324Z,-0.2
2019-02-24T04:58:01.374Z,-0.3
2019-02-24T05:03:01.377Z,-0.4
2019-02-24T05:08:01.398Z,-0.5
2019-02-24T05:13:01.570Z,-0.6
2019-02-24T05:28:01.185Z,-0.6
2019-02-24T05:38:06.341Z,-0.5
2019-02-24T05:53:01.489Z,-0.5
2019-02-24T05:58:01.485Z,-0.6
2019-02-24T06:13:01.488Z,-0.7
2019-02-24T06:28:01.552Z,-0.6
2019-02-24T06:43:01.526Z,-0.6
2019-02-24T06:48:01.477Z,-0.7
2019-02-24T06:58:01.488Z,-0.8
2019-02-24T07:13:01.470Z,-0.7
2019-02-24T07:18:01.519Z,-0.6
2019-02-24T07:23:01.506Z,-0.5
2019-02-24T07:28:01.486Z,-0.3
2019-02-24T07:33:01.473Z,-0.2
2019-02-24T07:43:01.523Z,0.2
2019-02-24T07:48:01.515Z,0.4
2019-02-24T07:53:01.496Z,0.6
2019-02-24T07:58:01.511Z,0.9
2019-02-24T08:03:01.560Z,1.0
2019-02-24T08:08:02.925Z,1.3
2019-02-24T08:13:01.539Z,1.4
2019-02-24T08:18:01.589Z,1.7
2019-02-24T08:23:01.548Z,1.8
2019-02-24T08:28:01.445Z,2.1
2019-02-24T08:33:01.283Z,2.3
2019-02-24T08:38:01.508Z,2.5
2019-02-24T08:43:01.409Z,2.7
2019-02-24T08:48:01.359Z,2.9
2019-02-24T08:53:01.352Z,3.0
2019-02-24T08:58:01.407Z,3.3
2019-02-24T09:03:01.390Z,3.4
2019-02-24T09:08:02.371Z,3.6
2019-02-24T09:13:01.367Z,3.8
2019-02-24T09:18:01.333Z,4.0
2019-02-24T09:23:01.383Z,4.2
2019-02-24T09:28:01.488Z,4.3
2019-02-24T09:33:01.421Z,4.4
2019-02-24T09:38:01.414Z,4.5
2019-02-24T09:44:01.344Z,4.6
2019-02-24T09:49:01.364Z,4.8
2019-02-24T09:54:01.416Z,4.9
2019-02-24T09:59:01.360Z,5.2
2019-02-24T10:04:01.417Z,5.4
2019-02-24T10:09:02.489Z,5.7
2019-02-24T10:14:01.351Z,5.9
2019-02-24T10:19:01.333Z,6.2
2019-02-24T10:24:01.363Z,6.4
2019-02-24T10:29:01.343Z,6.7
2019-02-24T10:34:01.511Z,6.9
2019-02-24T10:39:01.349Z,7.0
2019-02-24T10:44:01.667Z,7.1
2019-02-24T10:49:03.478Z,7.3
2019-02-24T10:59:01.468Z,7.5
2019-02-24T11:04:01.455Z,7.6
2019-02-24T11:09:01.340Z,7.8
2019-02-24T11:14:01.540Z,8.0
2019-02-24T11:19:01.354Z,8.2
2019-02-24T11:24:01.466Z,8.3
2019-02-24T11:29:01.892Z,8.5
2019-02-24T11:34:01.374Z,8.6
2019-02-24T11:39:01.382Z,8.8
2019-02-24T11:44:01.384Z,8.9
2019-02-24T11:49:01.423Z,9.1
2019-02-24T11:54:01.429Z,9.2
2019-02-24T12:00:01.556Z,9.4
2019-02-24T12:05:01.537Z,9.5
2019-02-24T12:10:01.351Z,9.7
2019-02-24T12:15:01.638Z,9.8
2019-02-24T12:20:01.337Z,9.9
2019-02-24T12:25:02.230Z,10.0
2019-02-24T12:30:01.494Z,10.1
2019-02-24T12:35:01.415Z,10.2
2019-02-24T12:40:01.330Z,10.3
2019-02-24T12:45:01.590Z,10.5
2019-02-24T12:50:03.359Z,10.6
2019-02-24T12:55:01.405Z,10.7
2019-02-24T13:00:01.504Z,10.8
2019-02-24T13:10:01.468Z,10.9
2019-02-24T13:15:03.702Z,11.0
2019-02-24T13:25:02.586Z,11.1
2019-02-24T13:30:01.519Z,11.2
2019-02-24T13:35:01.361Z,11.3
2019-02-24T13:45:01.587Z,11.4
2019-02-24T13:50:01.472Z,11.6
2019-02-24T13:55:01.448Z,11.7
2019-02-24T14:00:01.585Z,11.8
2019-02-24T14:05:01.419Z,11.9
2019-02-24T14:10:01.343Z,12.0
2019-02-24T14:15:01.582Z,12.0
2019-02-24T14:30:01.706Z,11.9
2019-02-24T14:35:01.429Z,11.8
2019-02-24T14:40:01.348Z,11.7
2019-02-24T14:45:01.636Z,11.6
2019-02-24T14:50:01.346Z,11.5
2019-02-24T15:00:06.387Z,11.3
2019-02-24T15:05:06.363Z,11.2
2019-02-24T15:10:01.402Z,11.1
2019-02-24T15:15:01.384Z,11.0
2019-02-24T15:20:06.363Z,10.8
2019-02-24T15:25:01.377Z,10.6
2019-02-24T15:30:06.366Z,10.4
2019-02-24T15:35:01.380Z,10.3
2019-02-24T15:40:01.383Z,10.0
2019-02-24T15:45:01.386Z,9.9
2019-02-24T15:50:01.399Z,9.8
2019-02-24T15:55:01.363Z,9.7
2019-02-24T16:00:06.458Z,9.6
2019-02-24T16:05:06.353Z,9.5
2019-02-24T16:10:01.430Z,9.4
2019-02-24T16:15:01.351Z,9.3
2019-02-24T16:20:01.338Z,9.2
2019-02-24T16:25:01.340Z,9.0
2019-02-24T16:30:01.350Z,8.9
2019-02-24T16:35:01.332Z,8.7
2019-02-24T16:40:01.360Z,8.4
2019-02-24T16:45:01.355Z,8.1
2019-02-24T16:50:01.370Z,7.8
2019-02-24T16:55:01.342Z,7.6
2019-02-24T17:00:01.391Z,7.3
2019-02-24T17:05:01.345Z,7.1
2019-02-24T17:10:01.357Z,6.8
2019-02-24T17:15:01.358Z,6.7
2019-02-24T17:20:01.481Z,6.4
2019-02-24T17:25:01.356Z,6.3
2019-02-24T17:30:01.374Z,6.2
2019-02-24T17:35:01.372Z,6.0
2019-02-24T17:40:01.364Z,5.9
2019-02-24T17:45:02.051Z,5.8
2019-02-24T17:50:01.324Z,5.6
2019-02-24T17:55:01.536Z,5.5
2019-02-24T18:00:01.342Z,5.3
2019-02-24T18:05:01.480Z,5.2
2019-02-24T18:10:01.331Z,4.9
2019-02-24T18:15:01.423Z,4.7
2019-02-24T18:20:01.335Z,4.4
2019-02-24T18:25:03.306Z,4.3
2019-02-24T18:30:01.359Z,4.1
2019-02-24T18:35:01.476Z,4.0
2019-02-24T18:40:01.338Z,3.9
2019-02-24T18:45:01.484Z,3.8
2019-02-24T18:50:01.331Z,3.7
2019-02-24T18:55:01.545Z,3.6
2019-02-24T19:00:01.373Z,3.5
2019-02-24T19:15:01.444Z,3.5
2019-02-24T19:26:01.443Z,3.4
2019-02-24T19:31:01.313Z,3.3
2019-02-24T19:36:01.500Z,3.2
2019-02-24T19:41:02.285Z,3.1
2019-02-24T19:46:01.400Z,3.0
2019-02-24T19:51:01.339Z,2.9
2019-02-24T19:56:01.451Z,2.7
2019-02-24T20:01:01.290Z,2.6
2019-02-24T20:06:01.407Z,2.5
2019-02-24T20:11:01.357Z,2.4
2019-02-24T20:16:01.416Z,2.3
2019-02-24T20:31:01.408Z,2.3
2019-02-24T20:41:01.544Z,2.4
2019-02-24T20:46:01.528Z,2.5
2019-02-24T20:51:01.347Z,2.6
2019-02-24T21:01:01.314Z,2.5
2019-02-24T21:06:01.589Z,2.4
2019-02-24T21:11:01.375Z,2.3
2019-02-24T21:16:01.418Z,2.1
2019-02-24T21:21:01.323Z,2.0
2019-02-24T21:31:01.500Z,1.9
2019-02-24T21:46:01.418Z,1.8
2019-02-24T21:56:01.526Z,1.7
2019-02-24T22:01:01.464Z,1.6
2019-02-24T22:07:02.235Z,1.4
2019-02-24T22:12:01.320Z,1.3
2019-02-24T22:17:01.384Z,1.2
2019-02-24T22:22:01.336Z,1.1
2019-02-24T22:27:01.454Z,1.0
2019-02-24T22:42:01.434Z,1.0
2019-02-24T22:58:01.330Z,1.0
2019-02-24T23:03:01.335Z,0.9
2019-02-24T23:08:01.403Z,0.8
2019-02-24T23:18:01.389Z,0.7
2019-02-24T23:23:01.387Z,0.6
2019-02-24T23:33:01.387Z,0.5
2019-02-24T23:48:01.499Z,0.5
2019-02-24T23:58:01.448Z,0.6
